sensor_id;sensor_type;location;lat;lon;timestamp;P1;durP1;ratioP1;P2;durP2;ratioP2
10805;SDS011;5455;53.224;6.000;2023-07-28T00:00:38;12.23;;;4.20;;
10805;SDS011;5455;53.224;6.000;2023-07-28T00:03:06;8.53;;;3.80;;
10805;SDS011;5455;53.224;6.000;2023-07-28T00:05:33;14.83;;;4.53;;
10805;SDS011;5455;53.224;6.000;2023-07-28T00:08:02;11.20;;;4.17;;
10805;SDS011;5455;53.224;6.000;2023-07-28T00:10:29;10.83;;;4.57;;
10805;SDS011;5455;53.224;6.000;2023-07-28T00:12:56;12.97;;;5.87;;
10805;SDS011;5455;53.224;6.000;2023-07-28T00:15:24;14.03;;;4.50;;
10805;SDS011;5455;53.224;6.000;2023-07-28T00:17:52;15.47;;;5.37;;
10805;SDS011;5455;53.224;6.000;2023-07-28T00:20:20;13.60;;;4.80;;
10805;SDS011;5455;53.224;6.000;2023-07-28T00:22:47;14.23;;;4.77;;
10805;SDS011;5455;53.224;6.000;2023-07-28T00:25:14;13.70;;;5.27;;
10805;SDS011;5455;53.224;6.000;2023-07-28T00:27:41;15.93;;;5.10;;
10805;SDS011;5455;53.224;6.000;2023-07-28T00:30:09;15.27;;;5.13;;
10805;SDS011;5455;53.224;6.000;2023-07-28T00:32:37;19.60;;;4.97;;
10805;SDS011;5455;53.224;6.000;2023-07-28T00:35:05;13.43;;;5.37;;
10805;SDS011;5455;53.224;6.000;2023-07-28T00:37:33;10.60;;;4.50;;
10805;SDS011;5455;53.224;6.000;2023-07-28T00:40:00;12.17;;;4.00;;
10805;SDS011;5455;53.224;6.000;2023-07-28T00:42:28;11.80;;;4.57;;
10805;SDS011;5455;53.224;6.000;2023-07-28T00:44:55;13.57;;;4.00;;
10805;SDS011;5455;53.224;6.000;2023-07-28T00:47:23;8.87;;;4.20;;
10805;SDS011;5455;53.224;6.000;2023-07-28T00:49:51;11.87;;;4.80;;
10805;SDS011;5455;53.224;6.000;2023-07-28T00:52:18;13.57;;;4.43;;
10805;SDS011;5455;53.224;6.000;2023-07-28T00:54:46;11.70;;;4.77;;
10805;SDS011;5455;53.224;6.000;2023-07-28T00:57:13;14.63;;;5.23;;
10805;SDS011;5455;53.224;6.000;2023-07-28T00:59:40;10.70;;;3.90;;
10805;SDS011;5455;53.224;6.000;2023-07-28T01:02:07;13.37;;;5.03;;
10805;SDS011;5455;53.224;6.000;2023-07-28T01:04:34;15.83;;;5.50;;
10805;SDS011;5455;53.224;6.000;2023-07-28T01:07:07;16.30;;;4.83;;
10805;SDS011;5455;53.224;6.000;2023-07-28T01:09:43;12.63;;;4.73;;
10805;SDS011;5455;53.224;6.000;2023-07-28T01:12:13;20.37;;;5.20;;
10805;SDS011;5455;53.224;6.000;2023-07-28T01:14:40;12.90;;;4.50;;
10805;SDS011;5455;53.224;6.000;2023-07-28T01:17:08;13.40;;;5.43;;
10805;SDS011;5455;53.224;6.000;2023-07-28T01:19:35;11.70;;;4.97;;
10805;SDS011;5455;53.224;6.000;2023-07-28T01:22:07;12.23;;;5.63;;
10805;SDS011;5455;53.224;6.000;2023-07-28T01:25:01;13.37;;;5.13;;
10805;SDS011;5455;53.224;6.000;2023-07-28T01:27:38;20.00;;;5.53;;
10805;SDS011;5455;53.224;6.000;2023-07-28T01:30:09;16.70;;;5.70;;
10805;SDS011;5455;53.224;6.000;2023-07-28T01:32:37;11.97;;;4.90;;
10805;SDS011;5455;53.224;6.000;2023-07-28T01:35:05;17.27;;;5.67;;
10805;SDS011;5455;53.224;6.000;2023-07-28T01:37:33;12.37;;;5.60;;
10805;SDS011;5455;53.224;6.000;2023-07-28T01:40:00;15.97;;;5.67;;
10805;SDS011;5455;53.224;6.000;2023-07-28T01:42:28;12.70;;;5.30;;
10805;SDS011;5455;53.224;6.000;2023-07-28T01:44:56;14.00;;;5.10;;
10805;SDS011;5455;53.224;6.000;2023-07-28T01:47:23;10.77;;;5.07;;
10805;SDS011;5455;53.224;6.000;2023-07-28T01:49:52;14.97;;;5.10;;
10805;SDS011;5455;53.224;6.000;2023-07-28T01:52:19;15.50;;;5.60;;
10805;SDS011;5455;53.224;6.000;2023-07-28T01:54:46;11.40;;;4.40;;
10805;SDS011;5455;53.224;6.000;2023-07-28T01:57:13;13.90;;;5.07;;
10805;SDS011;5455;53.224;6.000;2023-07-28T01:59:40;13.53;;;4.57;;
10805;SDS011;5455;53.224;6.000;2023-07-28T02:02:08;12.70;;;4.70;;
10805;SDS011;5455;53.224;6.000;2023-07-28T02:04:36;12.07;;;4.20;;
10805;SDS011;5455;53.224;6.000;2023-07-28T02:07:03;12.87;;;4.23;;
10805;SDS011;5455;53.224;6.000;2023-07-28T02:09:30;12.67;;;4.77;;
10805;SDS011;5455;53.224;6.000;2023-07-28T02:11:58;15.03;;;4.50;;
10805;SDS011;5455;53.224;6.000;2023-07-28T02:14:25;13.10;;;4.37;;
10805;SDS011;5455;53.224;6.000;2023-07-28T02:16:53;9.43;;;4.57;;
10805;SDS011;5455;53.224;6.000;2023-07-28T02:19:20;13.23;;;3.97;;
10805;SDS011;5455;53.224;6.000;2023-07-28T02:21:48;8.40;;;3.50;;
10805;SDS011;5455;53.224;6.000;2023-07-28T02:24:15;13.33;;;3.80;;
10805;SDS011;5455;53.224;6.000;2023-07-28T02:26:42;9.77;;;3.43;;
10805;SDS011;5455;53.224;6.000;2023-07-28T02:29:09;9.30;;;3.70;;
10805;SDS011;5455;53.224;6.000;2023-07-28T02:31:37;9.87;;;3.10;;
10805;SDS011;5455;53.224;6.000;2023-07-28T02:34:05;10.17;;;3.30;;
10805;SDS011;5455;53.224;6.000;2023-07-28T02:36:32;9.37;;;3.13;;
10805;SDS011;5455;53.224;6.000;2023-07-28T02:38:59;11.93;;;3.53;;
10805;SDS011;5455;53.224;6.000;2023-07-28T02:41:27;9.20;;;2.90;;
10805;SDS011;5455;53.224;6.000;2023-07-28T02:43:55;8.23;;;2.67;;
10805;SDS011;5455;53.224;6.000;2023-07-28T02:46:23;10.83;;;2.93;;
10805;SDS011;5455;53.224;6.000;2023-07-28T02:48:53;10.67;;;2.80;;
10805;SDS011;5455;53.224;6.000;2023-07-28T02:51:20;8.27;;;2.77;;
10805;SDS011;5455;53.224;6.000;2023-07-28T02:53:47;12.30;;;2.93;;
10805;SDS011;5455;53.224;6.000;2023-07-28T02:56:14;8.10;;;2.57;;
10805;SDS011;5455;53.224;6.000;2023-07-28T02:58:42;11.47;;;3.53;;
10805;SDS011;5455;53.224;6.000;2023-07-28T03:01:09;7.53;;;2.33;;
10805;SDS011;5455;53.224;6.000;2023-07-28T03:03:37;10.00;;;2.47;;
10805;SDS011;5455;53.224;6.000;2023-07-28T03:06:04;5.63;;;2.40;;
10805;SDS011;5455;53.224;6.000;2023-07-28T03:08:34;9.37;;;3.00;;
10805;SDS011;5455;53.224;6.000;2023-07-28T03:11:26;9.23;;;3.00;;
10805;SDS011;5455;53.224;6.000;2023-07-28T03:13:54;7.13;;;3.90;;
10805;SDS011;5455;53.224;6.000;2023-07-28T03:16:21;8.17;;;2.60;;
10805;SDS011;5455;53.224;6.000;2023-07-28T03:18:49;9.10;;;2.60;;
10805;SDS011;5455;53.224;6.000;2023-07-28T03:21:16;9.87;;;2.60;;
10805;SDS011;5455;53.224;6.000;2023-07-28T03:23:43;8.37;;;3.53;;
10805;SDS011;5455;53.224;6.000;2023-07-28T03:26:10;10.87;;;3.00;;
10805;SDS011;5455;53.224;6.000;2023-07-28T03:28:38;10.00;;;2.97;;
10805;SDS011;5455;53.224;6.000;2023-07-28T03:31:05;7.07;;;2.80;;
10805;SDS011;5455;53.224;6.000;2023-07-28T03:33:32;8.67;;;3.30;;
10805;SDS011;5455;53.224;6.000;2023-07-28T03:36:00;8.93;;;3.83;;
10805;SDS011;5455;53.224;6.000;2023-07-28T03:38:27;8.63;;;3.20;;
10805;SDS011;5455;53.224;6.000;2023-07-28T03:40:54;7.57;;;2.67;;
10805;SDS011;5455;53.224;6.000;2023-07-28T03:43:22;7.33;;;3.07;;
10805;SDS011;5455;53.224;6.000;2023-07-28T03:45:49;10.63;;;3.20;;
10805;SDS011;5455;53.224;6.000;2023-07-28T03:48:16;7.17;;;3.07;;
10805;SDS011;5455;53.224;6.000;2023-07-28T03:50:43;9.60;;;3.37;;
10805;SDS011;5455;53.224;6.000;2023-07-28T03:53:10;7.70;;;3.30;;
10805;SDS011;5455;53.224;6.000;2023-07-28T03:55:39;8.70;;;2.80;;
10805;SDS011;5455;53.224;6.000;2023-07-28T03:58:06;9.07;;;2.90;;
10805;SDS011;5455;53.224;6.000;2023-07-28T04:00:34;6.70;;;2.67;;
10805;SDS011;5455;53.224;6.000;2023-07-28T04:03:01;8.10;;;2.70;;
10805;SDS011;5455;53.224;6.000;2023-07-28T04:05:28;8.83;;;2.87;;
10805;SDS011;5455;53.224;6.000;2023-07-28T04:07:55;8.53;;;2.70;;
10805;SDS011;5455;53.224;6.000;2023-07-28T04:10:23;9.13;;;2.70;;
10805;SDS011;5455;53.224;6.000;2023-07-28T04:12:50;7.57;;;2.90;;
10805;SDS011;5455;53.224;6.000;2023-07-28T04:15:18;6.00;;;2.60;;
10805;SDS011;5455;53.224;6.000;2023-07-28T04:17:45;6.63;;;2.50;;
10805;SDS011;5455;53.224;6.000;2023-07-28T04:20:12;5.80;;;2.20;;
10805;SDS011;5455;53.224;6.000;2023-07-28T04:22:40;6.73;;;2.40;;
10805;SDS011;5455;53.224;6.000;2023-07-28T04:25:07;7.27;;;2.20;;
10805;SDS011;5455;53.224;6.000;2023-07-28T04:27:37;8.70;;;2.43;;
10805;SDS011;5455;53.224;6.000;2023-07-28T04:30:05;8.43;;;2.50;;
10805;SDS011;5455;53.224;6.000;2023-07-28T04:32:33;7.00;;;3.00;;
10805;SDS011;5455;53.224;6.000;2023-07-28T04:35:08;4.03;;;2.30;;
10805;SDS011;5455;53.224;6.000;2023-07-28T04:37:56;8.03;;;2.10;;
10805;SDS011;5455;53.224;6.000;2023-07-28T04:40:35;7.53;;;2.37;;
10805;SDS011;5455;53.224;6.000;2023-07-28T04:43:02;5.23;;;2.70;;
10805;SDS011;5455;53.224;6.000;2023-07-28T04:45:29;9.70;;;3.13;;
10805;SDS011;5455;53.224;6.000;2023-07-28T04:48:00;4.53;;;2.67;;
10805;SDS011;5455;53.224;6.000;2023-07-28T04:50:28;5.83;;;2.57;;
10805;SDS011;5455;53.224;6.000;2023-07-28T04:53:28;5.63;;;2.70;;
10805;SDS011;5455;53.224;6.000;2023-07-28T04:56:01;6.70;;;3.30;;
10805;SDS011;5455;53.224;6.000;2023-07-28T04:58:30;5.50;;;2.67;;
10805;SDS011;5455;53.224;6.000;2023-07-28T05:01:00;4.03;;;3.13;;
10805;SDS011;5455;53.224;6.000;2023-07-28T05:03:31;6.57;;;3.30;;
10805;SDS011;5455;53.224;6.000;2023-07-28T05:06:11;7.43;;;3.20;;
10805;SDS011;5455;53.224;6.000;2023-07-28T05:08:38;7.97;;;3.80;;
10805;SDS011;5455;53.224;6.000;2023-07-28T05:11:05;6.20;;;3.70;;
10805;SDS011;5455;53.224;6.000;2023-07-28T05:13:33;4.17;;;3.17;;
10805;SDS011;5455;53.224;6.000;2023-07-28T05:16:00;5.40;;;3.93;;
10805;SDS011;5455;53.224;6.000;2023-07-28T05:18:47;7.40;;;4.33;;
10805;SDS011;5455;53.224;6.000;2023-07-28T05:21:29;5.03;;;3.50;;
10805;SDS011;5455;53.224;6.000;2023-07-28T05:23:56;6.07;;;3.77;;
10805;SDS011;5455;53.224;6.000;2023-07-28T05:26:24;5.00;;;3.93;;
10805;SDS011;5455;53.224;6.000;2023-07-28T05:28:51;7.77;;;3.93;;
10805;SDS011;5455;53.224;6.000;2023-07-28T05:31:18;5.37;;;4.33;;
10805;SDS011;5455;53.224;6.000;2023-07-28T05:33:46;5.00;;;4.47;;
10805;SDS011;5455;53.224;6.000;2023-07-28T05:36:13;6.03;;;4.13;;
10805;SDS011;5455;53.224;6.000;2023-07-28T05:38:41;6.60;;;4.03;;
10805;SDS011;5455;53.224;6.000;2023-07-28T05:41:08;8.00;;;4.30;;
10805;SDS011;5455;53.224;6.000;2023-07-28T05:43:35;6.67;;;4.80;;
10805;SDS011;5455;53.224;6.000;2023-07-28T05:46:03;7.67;;;5.03;;
10805;SDS011;5455;53.224;6.000;2023-07-28T05:48:34;7.87;;;4.80;;
10805;SDS011;5455;53.224;6.000;2023-07-28T05:51:01;6.43;;;4.37;;
10805;SDS011;5455;53.224;6.000;2023-07-28T05:53:32;8.47;;;5.13;;
10805;SDS011;5455;53.224;6.000;2023-07-28T05:56:03;7.23;;;5.20;;
10805;SDS011;5455;53.224;6.000;2023-07-28T05:58:32;7.27;;;5.13;;
10805;SDS011;5455;53.224;6.000;2023-07-28T06:01:00;6.73;;;5.30;;
10805;SDS011;5455;53.224;6.000;2023-07-28T06:03:48;9.57;;;5.10;;
10805;SDS011;5455;53.224;6.000;2023-07-28T06:06:22;8.30;;;5.37;;
10805;SDS011;5455;53.224;6.000;2023-07-28T06:08:49;9.33;;;5.10;;
10805;SDS011;5455;53.224;6.000;2023-07-28T06:11:25;8.27;;;5.30;;
10805;SDS011;5455;53.224;6.000;2023-07-28T06:13:53;8.53;;;5.30;;
10805;SDS011;5455;53.224;6.000;2023-07-28T06:16:21;8.33;;;5.23;;
10805;SDS011;5455;53.224;6.000;2023-07-28T06:18:50;7.47;;;4.60;;
10805;SDS011;5455;53.224;6.000;2023-07-28T06:21:21;6.13;;;4.83;;
10805;SDS011;5455;53.224;6.000;2023-07-28T06:23:49;6.07;;;4.90;;
10805;SDS011;5455;53.224;6.000;2023-07-28T06:26:23;5.17;;;4.03;;
10805;SDS011;5455;53.224;6.000;2023-07-28T06:28:50;5.30;;;4.43;;
10805;SDS011;5455;53.224;6.000;2023-07-28T06:31:18;6.33;;;4.00;;
10805;SDS011;5455;53.224;6.000;2023-07-28T06:33:46;5.90;;;4.60;;
10805;SDS011;5455;53.224;6.000;2023-07-28T06:36:14;4.07;;;3.60;;
10805;SDS011;5455;53.224;6.000;2023-07-28T06:38:41;4.57;;;3.80;;
10805;SDS011;5455;53.224;6.000;2023-07-28T06:41:15;4.30;;;3.87;;
10805;SDS011;5455;53.224;6.000;2023-07-28T06:43:44;5.83;;;4.13;;
10805;SDS011;5455;53.224;6.000;2023-07-28T06:46:12;10.27;;;4.50;;
10805;SDS011;5455;53.224;6.000;2023-07-28T06:48:40;5.97;;;4.50;;
10805;SDS011;5455;53.224;6.000;2023-07-28T06:51:07;6.03;;;4.80;;
10805;SDS011;5455;53.224;6.000;2023-07-28T06:53:34;6.67;;;4.60;;
10805;SDS011;5455;53.224;6.000;2023-07-28T06:56:01;6.77;;;4.13;;
10805;SDS011;5455;53.224;6.000;2023-07-28T06:58:38;5.63;;;3.70;;
10805;SDS011;5455;53.224;6.000;2023-07-28T07:01:05;5.20;;;3.87;;
10805;SDS011;5455;53.224;6.000;2023-07-28T07:03:33;5.13;;;3.87;;
10805;SDS011;5455;53.224;6.000;2023-07-28T07:06:00;4.83;;;4.20;;
10805;SDS011;5455;53.224;6.000;2023-07-28T07:08:28;6.47;;;4.13;;
10805;SDS011;5455;53.224;6.000;2023-07-28T07:10:55;5.00;;;3.60;;
10805;SDS011;5455;53.224;6.000;2023-07-28T07:13:23;6.37;;;3.80;;
10805;SDS011;5455;53.224;6.000;2023-07-28T07:15:50;6.73;;;3.83;;
10805;SDS011;5455;53.224;6.000;2023-07-28T07:18:18;4.63;;;3.90;;
10805;SDS011;5455;53.224;6.000;2023-07-28T07:20:45;6.40;;;4.70;;
10805;SDS011;5455;53.224;6.000;2023-07-28T07:23:13;6.40;;;5.30;;
10805;SDS011;5455;53.224;6.000;2023-07-28T07:25:40;6.90;;;5.07;;
10805;SDS011;5455;53.224;6.000;2023-07-28T07:28:08;9.30;;;5.60;;
10805;SDS011;5455;53.224;6.000;2023-07-28T07:30:40;7.67;;;5.53;;
10805;SDS011;5455;53.224;6.000;2023-07-28T07:33:10;8.03;;;5.90;;
10805;SDS011;5455;53.224;6.000;2023-07-28T07:35:37;7.70;;;6.00;;
10805;SDS011;5455;53.224;6.000;2023-07-28T07:38:05;7.90;;;6.17;;
10805;SDS011;5455;53.224;6.000;2023-07-28T07:40:35;8.90;;;6.20;;
10805;SDS011;5455;53.224;6.000;2023-07-28T07:43:04;7.60;;;5.90;;
10805;SDS011;5455;53.224;6.000;2023-07-28T07:45:32;7.17;;;5.80;;
10805;SDS011;5455;53.224;6.000;2023-07-28T07:48:00;8.30;;;6.60;;
10805;SDS011;5455;53.224;6.000;2023-07-28T07:50:27;10.10;;;6.83;;
10805;SDS011;5455;53.224;6.000;2023-07-28T07:52:58;8.00;;;6.10;;
10805;SDS011;5455;53.224;6.000;2023-07-28T07:55:26;9.53;;;6.50;;
10805;SDS011;5455;53.224;6.000;2023-07-28T07:57:53;8.70;;;6.70;;
10805;SDS011;5455;53.224;6.000;2023-07-28T08:00:21;10.00;;;7.00;;
10805;SDS011;5455;53.224;6.000;2023-07-28T08:02:48;10.63;;;7.03;;
10805;SDS011;5455;53.224;6.000;2023-07-28T08:05:15;10.60;;;7.13;;
10805;SDS011;5455;53.224;6.000;2023-07-28T08:07:42;9.03;;;6.43;;
10805;SDS011;5455;53.224;6.000;2023-07-28T08:10:11;9.60;;;6.83;;
10805;SDS011;5455;53.224;6.000;2023-07-28T08:12:38;8.73;;;6.53;;
10805;SDS011;5455;53.224;6.000;2023-07-28T08:15:05;8.83;;;6.53;;
10805;SDS011;5455;53.224;6.000;2023-07-28T08:17:32;8.27;;;6.30;;
10805;SDS011;5455;53.224;6.000;2023-07-28T08:20:02;8.17;;;5.23;;
10805;SDS011;5455;53.224;6.000;2023-07-28T08:22:30;7.03;;;4.87;;
10805;SDS011;5455;53.224;6.000;2023-07-28T08:24:58;6.27;;;5.10;;
10805;SDS011;5455;53.224;6.000;2023-07-28T08:27:25;7.70;;;5.20;;
10805;SDS011;5455;53.224;6.000;2023-07-28T08:29:53;5.13;;;4.43;;
10805;SDS011;5455;53.224;6.000;2023-07-28T08:32:20;6.43;;;4.53;;
10805;SDS011;5455;53.224;6.000;2023-07-28T08:34:48;5.17;;;4.10;;
10805;SDS011;5455;53.224;6.000;2023-07-28T08:37:16;4.83;;;4.13;;
10805;SDS011;5455;53.224;6.000;2023-07-28T08:39:43;5.67;;;4.50;;
10805;SDS011;5455;53.224;6.000;2023-07-28T08:42:11;5.57;;;4.50;;
10805;SDS011;5455;53.224;6.000;2023-07-28T08:44:38;5.77;;;4.43;;
10805;SDS011;5455;53.224;6.000;2023-07-28T08:47:05;5.93;;;4.60;;
10805;SDS011;5455;53.224;6.000;2023-07-28T08:49:32;5.00;;;4.50;;
10805;SDS011;5455;53.224;6.000;2023-07-28T08:52:03;7.03;;;4.80;;
10805;SDS011;5455;53.224;6.000;2023-07-28T08:54:32;6.07;;;4.43;;
10805;SDS011;5455;53.224;6.000;2023-07-28T08:56:59;5.07;;;3.97;;
10805;SDS011;5455;53.224;6.000;2023-07-28T08:59:28;5.30;;;4.10;;
10805;SDS011;5455;53.224;6.000;2023-07-28T09:01:56;5.33;;;3.93;;
10805;SDS011;5455;53.224;6.000;2023-07-28T09:04:26;3.77;;;3.10;;
10805;SDS011;5455;53.224;6.000;2023-07-28T09:06:54;4.00;;;2.87;;
10805;SDS011;5455;53.224;6.000;2023-07-28T09:09:22;4.40;;;3.13;;
10805;SDS011;5455;53.224;6.000;2023-07-28T09:11:51;4.43;;;2.90;;
10805;SDS011;5455;53.224;6.000;2023-07-28T09:14:20;4.33;;;2.83;;
10805;SDS011;5455;53.224;6.000;2023-07-28T09:16:51;3.53;;;2.90;;
10805;SDS011;5455;53.224;6.000;2023-07-28T09:19:34;3.20;;;2.90;;
10805;SDS011;5455;53.224;6.000;2023-07-28T09:22:05;2.83;;;2.53;;
10805;SDS011;5455;53.224;6.000;2023-07-28T09:24:32;4.33;;;2.70;;
10805;SDS011;5455;53.224;6.000;2023-07-28T09:27:00;3.80;;;2.80;;
10805;SDS011;5455;53.224;6.000;2023-07-28T09:29:28;3.33;;;2.40;;
10805;SDS011;5455;53.224;6.000;2023-07-28T09:32:05;2.67;;;2.17;;
10805;SDS011;5455;53.224;6.000;2023-07-28T09:34:33;3.43;;;2.00;;
10805;SDS011;5455;53.224;6.000;2023-07-28T09:37:00;6.47;;;2.30;;
10805;SDS011;5455;53.224;6.000;2023-07-28T09:39:27;1.90;;;1.80;;
10805;SDS011;5455;53.224;6.000;2023-07-28T09:41:55;3.97;;;2.37;;
10805;SDS011;5455;53.224;6.000;2023-07-28T09:44:25;2.43;;;2.00;;
10805;SDS011;5455;53.224;6.000;2023-07-28T09:46:55;3.47;;;2.47;;
10805;SDS011;5455;53.224;6.000;2023-07-28T09:49:27;2.57;;;2.23;;
10805;SDS011;5455;53.224;6.000;2023-07-28T09:52:02;2.27;;;1.80;;
10805;SDS011;5455;53.224;6.000;2023-07-28T09:54:34;2.20;;;1.73;;
10805;SDS011;5455;53.224;6.000;2023-07-28T09:57:07;3.17;;;1.60;;
10805;SDS011;5455;53.224;6.000;2023-07-28T09:59:42;2.07;;;1.87;;
10805;SDS011;5455;53.224;6.000;2023-07-28T10:02:09;3.40;;;2.30;;
10805;SDS011;5455;53.224;6.000;2023-07-28T10:04:37;2.63;;;2.20;;
10805;SDS011;5455;53.224;6.000;2023-07-28T10:07:05;2.30;;;1.80;;
10805;SDS011;5455;53.224;6.000;2023-07-28T10:09:34;3.70;;;2.30;;
10805;SDS011;5455;53.224;6.000;2023-07-28T10:12:03;2.93;;;2.60;;
10805;SDS011;5455;53.224;6.000;2023-07-28T10:14:35;3.17;;;2.07;;
10805;SDS011;5455;53.224;6.000;2023-07-28T10:17:06;3.23;;;1.50;;
10805;SDS011;5455;53.224;6.000;2023-07-28T10:19:43;2.63;;;1.67;;
10805;SDS011;5455;53.224;6.000;2023-07-28T10:22:11;2.33;;;1.33;;
10805;SDS011;5455;53.224;6.000;2023-07-28T10:25:00;2.03;;;1.40;;
10805;SDS011;5455;53.224;6.000;2023-07-28T10:27:37;3.17;;;1.57;;
10805;SDS011;5455;53.224;6.000;2023-07-28T10:30:11;3.00;;;1.77;;
10805;SDS011;5455;53.224;6.000;2023-07-28T10:32:41;5.07;;;2.60;;
10805;SDS011;5455;53.224;6.000;2023-07-28T10:37:43;2.33;;;2.13;;
10805;SDS011;5455;53.224;6.000;2023-07-28T10:40:27;2.10;;;1.90;;
10805;SDS011;5455;53.224;6.000;2023-07-28T10:43:02;2.60;;;1.90;;
10805;SDS011;5455;53.224;6.000;2023-07-28T10:45:32;2.70;;;2.30;;
10805;SDS011;5455;53.224;6.000;2023-07-28T10:48:00;2.13;;;1.83;;
10805;SDS011;5455;53.224;6.000;2023-07-28T10:50:28;2.50;;;2.10;;
10805;SDS011;5455;53.224;6.000;2023-07-28T10:52:59;2.37;;;2.07;;
10805;SDS011;5455;53.224;6.000;2023-07-28T10:55:27;5.47;;;1.90;;
10805;SDS011;5455;53.224;6.000;2023-07-28T10:57:54;2.40;;;2.10;;
10805;SDS011;5455;53.224;6.000;2023-07-28T11:00:25;2.10;;;1.60;;
10805;SDS011;5455;53.224;6.000;2023-07-28T11:02:53;1.63;;;1.53;;
10805;SDS011;5455;53.224;6.000;2023-07-28T11:05:23;2.90;;;1.20;;
10805;SDS011;5455;53.224;6.000;2023-07-28T11:08:01;1.90;;;1.70;;
10805;SDS011;5455;53.224;6.000;2023-07-28T11:10:29;2.93;;;1.93;;
10805;SDS011;5455;53.224;6.000;2023-07-28T11:12:58;3.53;;;1.83;;
10805;SDS011;5455;53.224;6.000;2023-07-28T11:15:36;1.87;;;1.67;;
10805;SDS011;5455;53.224;6.000;2023-07-28T11:18:04;3.17;;;1.50;;
10805;SDS011;5455;53.224;6.000;2023-07-28T11:20:34;1.80;;;1.47;;
10805;SDS011;5455;53.224;6.000;2023-07-28T11:23:02;2.53;;;1.30;;
10805;SDS011;5455;53.224;6.000;2023-07-28T11:25:32;2.27;;;1.30;;
10805;SDS011;5455;53.224;6.000;2023-07-28T11:28:03;2.53;;;1.40;;
10805;SDS011;5455;53.224;6.000;2023-07-28T11:30:35;1.17;;;1.03;;
10805;SDS011;5455;53.224;6.000;2023-07-28T11:33:09;1.60;;;1.30;;
10805;SDS011;5455;53.224;6.000;2023-07-28T11:35:40;6.57;;;1.30;;
10805;SDS011;5455;53.224;6.000;2023-07-28T11:38:11;1.47;;;1.17;;
10805;SDS011;5455;53.224;6.000;2023-07-28T11:40:43;13.00;;;6.97;;
10805;SDS011;5455;53.224;6.000;2023-07-28T11:43:22;2.97;;;2.20;;
10805;SDS011;5455;53.224;6.000;2023-07-28T11:45:50;1.60;;;1.30;;
10805;SDS011;5455;53.224;6.000;2023-07-28T11:48:17;3.10;;;1.73;;
10805;SDS011;5455;53.224;6.000;2023-07-28T11:50:45;1.77;;;1.60;;
10805;SDS011;5455;53.224;6.000;2023-07-28T11:53:12;2.87;;;1.40;;
10805;SDS011;5455;53.224;6.000;2023-07-28T11:55:39;1.53;;;1.20;;
10805;SDS011;5455;53.224;6.000;2023-07-28T11:58:08;1.67;;;1.30;;
10805;SDS011;5455;53.224;6.000;2023-07-28T12:00:39;7.07;;;1.60;;
10805;SDS011;5455;53.224;6.000;2023-07-28T12:03:10;3.47;;;1.57;;
10805;SDS011;5455;53.224;6.000;2023-07-28T12:05:41;1.73;;;1.20;;
10805;SDS011;5455;53.224;6.000;2023-07-28T12:08:39;2.03;;;1.30;;
10805;SDS011;5455;53.224;6.000;2023-07-28T12:11:11;1.70;;;1.53;;
10805;SDS011;5455;53.224;6.000;2023-07-28T12:13:47;1.70;;;1.33;;
10805;SDS011;5455;53.224;6.000;2023-07-28T12:16:34;3.33;;;1.40;;
10805;SDS011;5455;53.224;6.000;2023-07-28T12:19:12;2.90;;;1.60;;
10805;SDS011;5455;53.224;6.000;2023-07-28T12:21:39;2.03;;;1.50;;
10805;SDS011;5455;53.224;6.000;2023-07-28T12:24:07;4.63;;;1.97;;
10805;SDS011;5455;53.224;6.000;2023-07-28T12:26:35;2.50;;;1.37;;
10805;SDS011;5455;53.224;6.000;2023-07-28T12:29:07;2.53;;;1.10;;
10805;SDS011;5455;53.224;6.000;2023-07-28T12:31:37;1.83;;;1.30;;
10805;SDS011;5455;53.224;6.000;2023-07-28T12:34:09;1.67;;;1.50;;
10805;SDS011;5455;53.224;6.000;2023-07-28T12:36:37;3.23;;;1.90;;
10805;SDS011;5455;53.224;6.000;2023-07-28T12:39:08;1.83;;;1.53;;
10805;SDS011;5455;53.224;6.000;2023-07-28T12:41:39;2.43;;;1.27;;
10805;SDS011;5455;53.224;6.000;2023-07-28T12:44:10;1.93;;;1.60;;
10805;SDS011;5455;53.224;6.000;2023-07-28T12:46:41;2.80;;;1.13;;
10805;SDS011;5455;53.224;6.000;2023-07-28T12:49:10;1.90;;;1.03;;
10805;SDS011;5455;53.224;6.000;2023-07-28T12:51:47;1.80;;;1.30;;
10805;SDS011;5455;53.224;6.000;2023-07-28T12:54:17;2.10;;;0.90;;
10805;SDS011;5455;53.224;6.000;2023-07-28T12:56:46;3.10;;;1.10;;
10805;SDS011;5455;53.224;6.000;2023-07-28T12:59:14;1.70;;;0.90;;
10805;SDS011;5455;53.224;6.000;2023-07-28T13:01:45;1.23;;;1.00;;
10805;SDS011;5455;53.224;6.000;2023-07-28T13:04:12;1.60;;;1.00;;
10805;SDS011;5455;53.224;6.000;2023-07-28T13:06:40;2.40;;;1.03;;
10805;SDS011;5455;53.224;6.000;2023-07-28T13:09:08;1.97;;;1.10;;
10805;SDS011;5455;53.224;6.000;2023-07-28T13:11:38;1.43;;;1.33;;
10805;SDS011;5455;53.224;6.000;2023-07-28T13:14:08;1.73;;;1.00;;
10805;SDS011;5455;53.224;6.000;2023-07-28T13:16:35;1.93;;;1.00;;
10805;SDS011;5455;53.224;6.000;2023-07-28T13:19:04;3.33;;;0.90;;
10805;SDS011;5455;53.224;6.000;2023-07-28T13:21:32;1.07;;;0.77;;
10805;SDS011;5455;53.224;6.000;2023-07-28T13:24:00;1.37;;;0.77;;
10805;SDS011;5455;53.224;6.000;2023-07-28T13:26:27;2.83;;;0.90;;
10805;SDS011;5455;53.224;6.000;2023-07-28T13:28:55;2.20;;;1.00;;
10805;SDS011;5455;53.224;6.000;2023-07-28T13:31:25;1.60;;;1.30;;
10805;SDS011;5455;53.224;6.000;2023-07-28T13:33:53;2.17;;;1.40;;
10805;SDS011;5455;53.224;6.000;2023-07-28T13:36:24;2.53;;;0.77;;
10805;SDS011;5455;53.224;6.000;2023-07-28T13:38:51;1.27;;;0.97;;
10805;SDS011;5455;53.224;6.000;2023-07-28T13:41:18;0.80;;;0.73;;
10805;SDS011;5455;53.224;6.000;2023-07-28T13:43:45;3.10;;;1.53;;
10805;SDS011;5455;53.224;6.000;2023-07-28T13:46:13;1.77;;;1.13;;
10805;SDS011;5455;53.224;6.000;2023-07-28T13:48:40;1.57;;;1.30;;
10805;SDS011;5455;53.224;6.000;2023-07-28T13:51:19;1.50;;;1.30;;
10805;SDS011;5455;53.224;6.000;2023-07-28T13:53:56;1.73;;;1.33;;
10805;SDS011;5455;53.224;6.000;2023-07-28T13:56:26;1.47;;;1.00;;
10805;SDS011;5455;53.224;6.000;2023-07-28T13:58:55;1.53;;;1.30;;
10805;SDS011;5455;53.224;6.000;2023-07-28T14:01:31;2.10;;;1.30;;
10805;SDS011;5455;53.224;6.000;2023-07-28T14:04:00;1.67;;;1.10;;
10805;SDS011;5455;53.224;6.000;2023-07-28T14:06:27;3.90;;;1.17;;
10805;SDS011;5455;53.224;6.000;2023-07-28T14:08:55;3.23;;;1.50;;
10805;SDS011;5455;53.224;6.000;2023-07-28T14:11:23;4.73;;;1.47;;
10805;SDS011;5455;53.224;6.000;2023-07-28T14:13:50;3.00;;;1.63;;
10805;SDS011;5455;53.224;6.000;2023-07-28T14:16:17;1.20;;;0.83;;
10805;SDS011;5455;53.224;6.000;2023-07-28T14:18:45;3.03;;;1.00;;
10805;SDS011;5455;53.224;6.000;2023-07-28T14:21:14;1.77;;;1.07;;
10805;SDS011;5455;53.224;6.000;2023-07-28T14:23:41;2.63;;;1.50;;
10805;SDS011;5455;53.224;6.000;2023-07-28T14:26:09;1.37;;;1.20;;
10805;SDS011;5455;53.224;6.000;2023-07-28T14:28:36;2.40;;;1.30;;
10805;SDS011;5455;53.224;6.000;2023-07-28T14:31:04;3.70;;;1.50;;
10805;SDS011;5455;53.224;6.000;2023-07-28T14:33:31;2.73;;;1.67;;
10805;SDS011;5455;53.224;6.000;2023-07-28T14:35:58;2.57;;;1.53;;
10805;SDS011;5455;53.224;6.000;2023-07-28T14:38:25;1.80;;;1.40;;
10805;SDS011;5455;53.224;6.000;2023-07-28T14:40:53;1.70;;;1.40;;
10805;SDS011;5455;53.224;6.000;2023-07-28T14:43:20;4.47;;;1.63;;
10805;SDS011;5455;53.224;6.000;2023-07-28T14:45:49;2.93;;;1.77;;
10805;SDS011;5455;53.224;6.000;2023-07-28T14:48:18;4.00;;;2.17;;
10805;SDS011;5455;53.224;6.000;2023-07-28T14:50:46;5.30;;;1.87;;
10805;SDS011;5455;53.224;6.000;2023-07-28T14:53:33;3.47;;;1.83;;
10805;SDS011;5455;53.224;6.000;2023-07-28T14:56:02;1.83;;;1.53;;
10805;SDS011;5455;53.224;6.000;2023-07-28T14:58:32;3.00;;;1.70;;
10805;SDS011;5455;53.224;6.000;2023-07-28T15:01:00;2.37;;;1.60;;
10805;SDS011;5455;53.224;6.000;2023-07-28T15:03:28;1.97;;;1.60;;
10805;SDS011;5455;53.224;6.000;2023-07-28T15:05:59;4.43;;;2.13;;
10805;SDS011;5455;53.224;6.000;2023-07-28T15:08:27;3.60;;;2.70;;
10805;SDS011;5455;53.224;6.000;2023-07-28T15:10:55;3.83;;;1.70;;
10805;SDS011;5455;53.224;6.000;2023-07-28T15:13:24;3.30;;;2.40;;